createdAt,value
2022-08-17T00:06:53.976Z,8.48
2022-08-17T00:16:56.796Z,8.27
2022-08-17T00:26:59.526Z,8.23
2022-08-17T00:37:00.909Z,8.48
2022-08-17T00:47:02.306Z,7.72
2022-08-17T00:57:03.692Z,8.73
2022-08-17T01:07:05.019Z,8.95
2022-08-17T01:17:06.361Z,8.20
2022-08-17T01:27:10.534Z,8.48
2022-08-17T01:37:12.144Z,8.38
2022-08-17T01:47:13.487Z,8.35
2022-08-17T01:57:14.825Z,8.25
2022-08-17T02:07:17.226Z,8.35
2022-08-17T02:17:18.959Z,7.78
2022-08-17T02:27:20.288Z,8.70
2022-08-17T02:37:21.635Z,7.05
2022-08-17T02:47:22.952Z,7.70
2022-08-17T02:57:24.324Z,7.47
2022-08-17T03:07:25.631Z,7.85
2022-08-17T03:17:26.967Z,7.75
2022-08-17T03:27:28.300Z,7.07
2022-08-17T03:37:29.630Z,7.13
2022-08-17T03:47:49.577Z,7.05
2022-08-17T03:57:50.896Z,6.95
2022-08-17T04:07:54.312Z,6.50
2022-08-17T04:17:55.760Z,7.05
2022-08-17T04:27:57.333Z,6.90
2022-08-17T04:37:58.724Z,8.63
2022-08-17T04:48:00.115Z,7.82
2022-08-17T04:58:01.465Z,8.20
2022-08-17T05:08:02.797Z,7.95
2022-08-17T05:18:04.153Z,7.70
2022-08-17T05:28:05.427Z,7.30
2022-08-17T05:38:08.218Z,8.18
2022-08-17T05:48:10.334Z,7.32
2022-08-17T05:58:11.694Z,7.35
2022-08-17T06:08:13.036Z,7.32
2022-08-17T06:18:18.930Z,8.05
2022-08-17T06:28:20.531Z,8.23
2022-08-17T06:38:37.767Z,9.07
2022-08-17T06:48:40.096Z,8.73
2022-08-17T06:58:41.455Z,8.75
2022-08-17T07:08:43.648Z,8.73
2022-08-17T07:18:44.944Z,9.32
2022-08-17T07:28:46.284Z,8.60
2022-08-17T07:38:48.548Z,9.75
2022-08-17T07:48:49.924Z,10.80
2022-08-17T07:58:51.250Z,11.27
2022-08-17T08:08:52.620Z,10.20
2022-08-17T08:18:56.723Z,11.05
2022-08-17T08:29:00.413Z,11.80
2022-08-17T08:39:01.851Z,10.47
2022-08-17T08:49:09.983Z,10.38
2022-08-17T08:59:13.893Z,9.98
2022-08-17T09:09:15.273Z,9.93
2022-08-17T09:19:16.533Z,10.27
2022-08-17T09:29:17.877Z,12.45
2022-08-17T09:39:19.162Z,12.23
2022-08-17T09:49:25.019Z,11.60
2022-08-17T09:59:27.547Z,10.38
2022-08-17T10:09:38.439Z,9.48
2022-08-17T10:19:39.856Z,8.88
2022-08-17T10:29:48.910Z,7.40
2022-08-17T10:39:52.537Z,6.45
2022-08-17T10:49:56.010Z,6.65
2022-08-17T10:59:57.360Z,7.00
2022-08-17T11:09:58.735Z,7.80
2022-08-17T11:20:00.099Z,7.25
2022-08-17T11:30:02.494Z,6.18
2022-08-17T11:40:05.596Z,5.57
2022-08-17T11:50:28.040Z,5.00
2022-08-17T12:00:30.172Z,5.07
2022-08-17T12:10:34.309Z,5.03
2022-08-17T12:20:35.675Z,5.50
2022-08-17T12:30:37.025Z,5.50
2022-08-17T12:40:38.365Z,5.28
2022-08-17T12:50:39.708Z,4.90
2022-08-17T13:00:41.302Z,4.63
2022-08-17T13:10:48.881Z,4.30
2022-08-17T13:30:55.453Z,4.22
2022-08-17T13:40:56.793Z,4.40
2022-08-17T13:50:58.143Z,4.00
2022-08-17T14:01:03.421Z,4.10
2022-08-17T14:11:13.961Z,4.50
2022-08-17T14:21:15.395Z,4.10
2022-08-17T14:31:16.747Z,4.10
2022-08-17T14:41:22.060Z,4.00
2022-08-17T14:51:23.685Z,4.32
2022-08-17T15:01:25.086Z,4.30
2022-08-17T15:11:26.440Z,4.20
2022-08-17T15:21:27.773Z,4.40
2022-08-17T15:31:31.646Z,4.20
2022-08-17T15:41:33.852Z,4.47
2022-08-17T15:51:35.264Z,4.10
2022-08-17T16:02:21.575Z,3.90
2022-08-17T16:22:43.873Z,4.00
2022-08-17T16:32:45.267Z,3.80
2022-08-17T16:42:48.437Z,4.28
2022-08-17T16:52:50.067Z,4.50
2022-08-17T17:03:06.464Z,4.35
2022-08-17T17:13:21.399Z,4.88
2022-08-17T17:23:22.650Z,4.72
2022-08-17T17:33:24.068Z,4.95
2022-08-17T17:43:38.946Z,4.93
2022-08-17T17:53:43.523Z,4.53
2022-08-17T18:03:45.055Z,4.30
2022-08-17T18:13:46.471Z,5.35
2022-08-17T18:23:50.908Z,5.93
2022-08-17T18:33:52.457Z,6.10
2022-08-17T18:43:54.065Z,5.72
2022-08-17T18:53:55.451Z,5.55
2022-08-17T19:03:58.862Z,6.10
2022-08-17T19:14:00.983Z,5.80
2022-08-17T19:24:02.284Z,5.18
2022-08-17T19:34:03.657Z,5.50
2022-08-17T19:44:06.968Z,5.97
2022-08-17T19:54:08.295Z,5.78
2022-08-17T20:04:09.673Z,6.35
2022-08-17T20:14:11.020Z,5.82
2022-08-17T20:24:12.351Z,6.40
2022-08-17T20:34:13.689Z,6.28
2022-08-17T20:44:14.976Z,6.45
2022-08-17T20:54:16.380Z,6.43
2022-08-17T21:04:17.697Z,6.50
2022-08-17T21:14:19.026Z,6.53
2022-08-17T21:24:21.483Z,6.40
2022-08-17T21:34:22.839Z,6.70
2022-08-17T21:44:30.566Z,6.68
2022-08-17T21:54:34.038Z,6.70
2022-08-17T22:04:35.352Z,6.10
2022-08-17T22:14:52.667Z,6.15
2022-08-17T22:24:57.521Z,5.60
2022-08-17T22:34:59.092Z,5.70
2022-08-17T22:45:00.344Z,4.75
2022-08-17T22:55:20.290Z,5.70
2022-08-17T23:05:21.708Z,4.75
2022-08-17T23:15:24.386Z,4.72
2022-08-17T23:25:25.877Z,4.82
2022-08-17T23:35:39.249Z,5.18
2022-08-17T23:45:41.992Z,5.15
2022-08-17T23:55:43.410Z,4.97
